Terminal Aerodrome Forecast
Issued by NWS

Home | Current Version | Previous Version | Text Only | Print | Product List | Glossary On
Versions: 1 2 3 4 5 6 7 8 9 10 11 12 13 14
000
FTUS44 KLZK 261212 AAA
TAFADF
TAF AMD
KADF 261212Z 2612/2712 16008KT P6SM SCT009 BKN050 WS020/20040KT
     FM261400 18008G18KT P6SM VCSH SCT025 OVC040
      TEMPO 2615/2619 5SM -SHRA BR OVC015
     FM261900 24012G22KT 6SM -RA SCT007 OVC015
      TEMPO 2619/2623 VRB25G40KT 1SM TSRA OVC007CB
     FM262300 30012G20KT P6SM -SHRA BKN015 OVC040
     FM270300 30008KT P6SM OVC035
      AMD NOT SKED=

USA.gov is the U.S. government's official web portal to all federal, state and local government web resources and services.